createdAt,value
2019-04-11T00:00:03.513Z,997.3
2019-04-11T00:03:33.753Z,997.81
2019-04-11T00:07:04.228Z,998.23
2019-04-11T00:10:35.475Z,998.3
2019-04-11T00:14:05.623Z,998.49
2019-04-11T00:17:36.284Z,998.87
2019-04-11T00:21:06.831Z,999.29
2019-04-11T00:24:36.941Z,999.63
2019-04-11T00:28:07.776Z,999.77
2019-04-11T00:31:38.962Z,999.82
2019-04-11T00:35:11.181Z,999.9
2019-04-11T00:38:42.264Z,1000.1
2019-04-11T00:42:12.538Z,999.94
2019-04-11T00:45:43.541Z,999.49
2019-04-11T00:49:14.427Z,999.73
2019-04-11T00:52:45.441Z,999.97
2019-04-11T00:56:15.766Z,999.82
2019-04-11T00:59:46.784Z,999.65
2019-04-11T01:00:15.868Z,999.74
2019-04-11T01:03:45.928Z,1000.15
2019-04-11T01:07:16.537Z,1000.66
2019-04-11T01:10:47.703Z,1000.98
2019-04-11T01:14:17.948Z,1001.03
2019-04-11T01:17:48.122Z,1001.23
2019-04-11T01:21:18.290Z,1001.55
2019-04-11T01:24:48.479Z,1001.96
2019-04-11T01:28:18.744Z,1002.33
2019-04-11T01:31:52.156Z,1002.44
2019-04-11T01:35:23.441Z,1002.29
2019-04-11T01:38:56.921Z,1002.52
2019-04-11T01:42:27.212Z,1002.63
2019-04-11T01:45:57.979Z,1002.44
2019-04-11T01:49:28.358Z,1002.61
2019-04-11T01:52:58.483Z,1002.36
2019-04-11T01:56:29.398Z,1002.13
2019-04-11T01:59:59.687Z,1001.84
2019-04-11T02:03:45.500Z,1002.08
2019-04-11T02:07:15.720Z,1002.04
2019-04-11T02:10:45.743Z,1002.66
2019-04-11T02:14:17.830Z,1002.52
2019-04-11T02:17:50.830Z,1002.21
2019-04-11T02:21:21.921Z,1002.16
2019-04-11T02:24:59.093Z,1001.99
2019-04-11T02:28:29.196Z,1002.04
2019-04-11T02:32:02.940Z,1002.06
2019-04-11T02:35:37.374Z,1002.05
2019-04-11T02:39:12.921Z,1002
2019-04-11T02:42:47.580Z,1002.18
2019-04-11T02:46:22.956Z,1002.42
2019-04-11T02:49:59.986Z,1002.13
2019-04-11T02:53:32.035Z,1001.73
2019-04-11T02:57:03.220Z,1001.36
2019-04-11T03:00:15.986Z,1001.73
2019-04-11T03:03:47.672Z,1001.04
2019-04-11T03:07:17.722Z,1001.23
2019-04-11T03:10:49.137Z,1000.81
2019-04-11T03:14:20.644Z,1001.13
2019-04-11T03:17:54.996Z,1001.47
2019-04-11T03:21:32.756Z,1000.97
2019-04-11T03:25:08.465Z,1001.2
2019-04-11T03:28:40.762Z,1001.33
2019-04-11T03:36:50.590Z,1001.72
2019-04-11T03:41:00.362Z,1001.53
2019-04-11T03:44:47.289Z,1001.53
2019-04-11T03:48:33.854Z,1001.16
2019-04-11T03:52:12.492Z,1000.61
2019-04-11T03:55:43.456Z,1000.58
2019-04-11T03:59:16.337Z,1000.54
2019-04-11T04:02:47.308Z,1000.41
2019-04-11T04:06:19.173Z,1000.54
2019-04-11T04:09:51.064Z,1000.46
2019-04-11T04:13:22.785Z,999.97
2019-04-11T04:17:04.079Z,999.73
2019-04-11T04:20:51.276Z,999.73
2019-04-11T04:24:28.787Z,999.19
2019-04-11T04:28:03.077Z,998.98
2019-04-11T04:31:34.867Z,998.86
2019-04-11T04:35:07.209Z,998.9
2019-04-11T04:38:41.547Z,998.87
2019-04-11T04:42:23.509Z,998.91
2019-04-11T04:46:12.117Z,999.66
2019-04-11T04:49:54.321Z,1000.22
2019-04-11T04:53:27.690Z,1001.14
2019-04-11T04:56:58.449Z,1001.51
2019-04-11T05:00:16.240Z,1002.18
2019-04-11T05:03:46.853Z,1002.57
2019-04-11T05:07:19.356Z,1003.19
2019-04-11T05:10:51.136Z,1003.35
2019-04-11T05:14:23.148Z,1003.63
2019-04-11T05:17:53.455Z,1004.03
2019-04-11T05:21:23.658Z,1004.83
2019-04-11T05:24:55.528Z,1005.07
2019-04-11T05:28:26.148Z,1005.77
2019-04-11T05:31:56.732Z,1006.05
2019-04-11T05:35:27.010Z,1007.39
2019-04-11T05:38:58.313Z,1008.01
2019-04-11T05:42:29.184Z,1008.34
2019-04-11T05:46:00.259Z,1009.4
2019-04-11T05:50:37.043Z,1010.02
2019-04-11T05:54:08.826Z,1010.74
2019-04-11T05:57:43.062Z,1010.13
2019-04-11T06:01:20.343Z,1009.65
2019-04-11T06:04:57.772Z,1009.97
2019-04-11T06:08:30.259Z,1009.73
2019-04-11T06:12:11.640Z,1010.63
2019-04-11T06:15:44.365Z,1010.57
2019-04-11T06:19:24.937Z,1011.47
2019-04-11T06:23:03.329Z,1010.88
2019-04-11T06:27:55.698Z,1011.5
2019-04-11T06:33:49.583Z,1012.59
2019-04-11T06:37:38.145Z,1012.98
2019-04-11T06:41:16.684Z,1012.88
2019-04-11T06:44:54.881Z,1012.8
2019-04-11T06:48:35.853Z,1012.84
2019-04-11T06:52:08.457Z,1012.85
2019-04-11T06:55:48.927Z,1012.57
2019-04-11T06:59:23.958Z,1012.16
2019-04-11T07:00:16.965Z,1012.02
2019-04-11T07:03:53.182Z,1011.78
2019-04-11T07:07:27.075Z,1011.87
2019-04-11T07:11:02.955Z,1012.23
2019-04-11T07:14:40.189Z,1012.17
2019-04-11T07:18:52.750Z,1012.81
2019-04-11T07:25:08.956Z,1014.22
2019-04-11T07:29:29.384Z,1014.69
2019-04-11T07:33:14.206Z,1015.8
2019-04-11T07:37:19.392Z,1016.18
2019-04-11T07:41:00.669Z,1016.64
2019-04-11T07:44:32.285Z,1017.15
2019-04-11T07:48:10.741Z,1016.84
2019-04-11T07:51:45.766Z,1016.92
2019-04-11T07:55:19.209Z,1013.96
2019-04-11T07:58:52.355Z,1012.66
2019-04-11T08:03:55.784Z,1011.42
2019-04-11T08:08:38.881Z,1012.76
2019-04-11T08:12:12.910Z,1013.48
2019-04-11T08:18:04.198Z,1014.72
2019-04-11T08:23:54.806Z,1018.45
2019-04-11T08:27:31.592Z,1019.97
2019-04-11T08:31:19.967Z,1021.47
2019-04-11T08:34:58.297Z,1022.15
2019-04-11T08:38:30.425Z,1024.38
2019-04-11T08:42:14.983Z,1025.89
2019-04-11T08:45:50.677Z,1027.51
2019-04-11T08:49:29.089Z,1027.75
2019-04-11T08:53:13.184Z,1028.5
2019-04-11T08:56:43.319Z,1028.36
2019-04-11T09:01:22.136Z,1028.33
2019-04-11T09:05:15.775Z,1027.34
2019-04-11T09:09:11.172Z,1027.83
2019-04-11T09:12:46.946Z,1028.81
2019-04-11T09:17:24.576Z,1030.97
2019-04-11T09:23:14.400Z,1029.84
2019-04-11T09:27:58.554Z,1029.98
2019-04-11T09:38:40.209Z,1030.21
2019-04-11T09:42:32.798Z,1031.07
2019-04-11T09:46:26.345Z,1032.18
2019-04-11T09:49:57.963Z,1032.65
2019-04-11T09:53:28.591Z,1031.27
2019-04-11T09:57:18.536Z,1032.05
2019-04-11T10:01:06.209Z,1032.38
2019-04-11T10:04:36.501Z,1031.79
2019-04-11T10:09:11.539Z,1031.46
2019-04-11T10:13:21.528Z,1031.07
2019-04-11T10:18:05.476Z,1029.66
2019-04-11T10:21:35.966Z,1027.61
2019-04-11T10:25:17.134Z,1026.12
2019-04-11T10:29:02.251Z,1024.64
2019-04-11T10:32:36.094Z,1022.74
2019-04-11T10:36:21.108Z,1018.9
2019-04-11T10:42:39.480Z,1015.51
2019-04-11T10:46:21.538Z,1015.39
2019-04-11T10:51:10.889Z,1015.32
2019-04-11T10:54:42.040Z,1016.68
2019-04-11T10:58:18.389Z,1018.76
2019-04-11T11:00:22.984Z,1019.8
2019-04-11T11:04:01.143Z,1021.24
2019-04-11T11:07:32.954Z,1022.13
2019-04-11T11:11:08.220Z,1021.04
2019-04-11T11:15:13.619Z,1020.27
2019-04-11T11:21:07.477Z,1019.58
2019-04-11T11:25:17.781Z,1018.55
2019-04-11T11:32:31.670Z,1017.4
2019-04-11T11:36:22.038Z,1017.27
2019-04-11T11:44:44.733Z,1015.93
2019-04-11T11:48:31.168Z,1014.98
2019-04-11T11:52:34.470Z,1014.26
2019-04-11T11:56:05.473Z,1013.88
2019-04-11T11:59:42.844Z,1012.32
2019-04-11T12:03:29.372Z,1010.24
2019-04-11T12:07:05.472Z,1009.65
2019-04-11T12:10:44.110Z,1009.85
2019-04-11T12:15:32.970Z,1009.93
2019-04-11T12:19:16.209Z,1010.65
2019-04-11T12:22:51.822Z,1010.38
2019-04-11T12:26:22.692Z,1010.78
2019-04-11T12:30:13.329Z,1010.96
2019-04-11T12:34:30.308Z,1011.34
2019-04-11T12:38:06.069Z,1011.49
2019-04-11T12:41:52.285Z,1011.31
2019-04-11T12:47:48.770Z,1009.32
2019-04-11T12:54:00.612Z,1008.07
2019-04-11T12:57:56.214Z,1007.4
2019-04-11T13:00:29.467Z,1007.29
2019-04-11T13:04:33.237Z,1007.17
2019-04-11T13:09:16.774Z,1007.29
2019-04-11T13:14:01.785Z,1007.92
2019-04-11T13:17:35.124Z,1008.29
2019-04-11T13:21:09.961Z,1007.74
2019-04-11T13:24:46.995Z,1007.9
2019-04-11T13:28:17.188Z,1007.41
2019-04-11T13:32:55.706Z,1006.44
2019-04-11T13:36:36.991Z,1006.53
2019-04-11T13:41:45.915Z,1005.7
2019-04-11T13:45:16.700Z,1006.18
2019-04-11T13:49:55.654Z,1006.55
2019-04-11T13:55:48.970Z,1009.26
2019-04-11T14:01:40.235Z,1010.12
2019-04-11T14:05:11.282Z,1010.05
2019-04-11T14:08:51.538Z,1009.5
2019-04-11T14:12:21.833Z,1009.59
2019-04-11T14:15:55.490Z,1008.6
2019-04-11T14:20:14.398Z,1008.4
2019-04-11T14:23:58.364Z,1010.31
2019-04-11T14:27:28.789Z,1011.12
2019-04-11T14:31:08.786Z,1011.38
2019-04-11T14:37:06.596Z,1010.5
2019-04-11T14:44:03.220Z,1009.26
2019-04-11T14:48:52.273Z,1008.84
2019-04-11T14:52:32.902Z,1008.84
2019-04-11T14:56:07.069Z,1009.17
2019-04-11T14:59:41.698Z,1008.63
2019-04-11T15:00:24.238Z,1008.74
2019-04-11T15:04:31.611Z,1008.65
2019-04-11T15:08:01.814Z,1008.52
2019-04-11T15:11:50.649Z,1008.72
2019-04-11T15:16:11.093Z,1008.47
2019-04-11T15:19:43.025Z,1008.35
2019-04-11T15:23:19.946Z,1008.13
2019-04-11T15:29:45.941Z,1007
2019-04-11T15:33:48.783Z,1006.03
2019-04-11T15:37:30.439Z,1005.55
2019-04-11T15:41:01.216Z,1005.44
2019-04-11T15:46:51.762Z,1004.48
2019-04-11T15:51:30.673Z,1003.98
2019-04-11T15:58:48.817Z,1003.27
2019-04-11T16:03:36.395Z,1003.03
2019-04-11T16:07:54.752Z,1003.16
2019-04-11T16:11:52.574Z,1003.13
2019-04-11T16:15:23.289Z,1003.33
2019-04-11T16:20:03.211Z,1002.12
2019-04-11T16:23:49.744Z,1001.01
2019-04-11T16:27:44.820Z,1001.62
2019-04-11T16:31:15.059Z,1002.29
2019-04-11T16:34:51.732Z,1002.71
2019-04-11T16:38:25.569Z,1003.24
2019-04-11T16:42:00.093Z,1003.72
2019-04-11T16:45:54.613Z,1003.74
2019-04-11T16:49:25.960Z,1003.93
2019-04-11T16:52:56.995Z,1003.94
2019-04-11T16:56:27.169Z,1003.85
2019-04-11T16:59:58.356Z,1003.75
2019-04-11T17:00:20.332Z,1003.61
2019-04-11T17:03:54.846Z,1003.66
2019-04-11T17:07:34.723Z,1003.87
2019-04-11T17:11:08.606Z,1003.89
2019-04-11T17:14:38.810Z,1003.65
2019-04-11T17:18:09.018Z,1002.74
2019-04-11T17:21:43.377Z,1002.28
2019-04-11T17:25:13.816Z,1002.2
2019-04-11T17:28:44.069Z,1002.48
2019-04-11T17:32:14.334Z,1002.41
2019-04-11T17:35:44.555Z,1002.38
2019-04-11T17:39:14.882Z,1002.63
2019-04-11T17:42:45.093Z,1002.57
2019-04-11T17:46:15.323Z,1002.57
2019-04-11T17:49:45.598Z,1002.83
2019-04-11T17:53:15.856Z,1002.95
2019-04-11T17:56:46.076Z,1003.02
2019-04-11T18:00:29.513Z,1003.41
2019-04-11T18:04:00.109Z,1003.71
2019-04-11T18:07:30.229Z,1004.06
2019-04-11T18:11:00.421Z,1004.39
2019-04-11T18:14:31.629Z,1004.85
2019-04-11T18:18:03.184Z,1005.25
2019-04-11T18:21:37.150Z,1005.52
2019-04-11T18:25:08.776Z,1005.75
2019-04-11T18:28:39.028Z,1005.88
2019-04-11T18:32:44.892Z,1005.89
2019-04-11T18:36:15.283Z,1005.94
2019-04-11T18:39:45.562Z,1005.58
2019-04-11T18:43:16.427Z,1005.25
2019-04-11T18:46:47.248Z,1005.23
2019-04-11T18:50:17.544Z,1005.38
2019-04-11T18:53:47.791Z,1005.03
2019-04-11T18:57:17.861Z,1005.02
2019-04-11T19:00:17.429Z,1004.36
2019-04-11T19:03:48.671Z,1003.75
2019-04-11T19:07:27.659Z,1003.82
2019-04-11T19:10:58.475Z,1003.57
2019-04-11T19:14:28.733Z,1003.55
2019-04-11T19:18:06.270Z,1003.55
2019-04-11T19:21:37.159Z,1003.73
2019-04-11T19:25:11.827Z,1003.52
2019-04-11T19:28:42.666Z,1003.7
2019-04-11T19:32:12.820Z,1003.58
2019-04-11T19:35:43.063Z,1003.41
2019-04-11T19:39:14.527Z,1002.71
2019-04-11T19:42:48.905Z,1001.49
2019-04-11T19:46:20.377Z,1001.06
2019-04-11T19:49:51.232Z,1000.93
2019-04-11T19:53:21.295Z,1000.02
2019-04-11T19:57:07.609Z,999.83
2019-04-11T20:00:37.731Z,999.85
2019-04-11T20:04:08.733Z,999.5
2019-04-11T20:07:38.824Z,999.59
2019-04-11T20:11:09.008Z,999.84
2019-04-11T20:14:39.107Z,1000.05
2019-04-11T20:18:09.187Z,1000.44
2019-04-11T20:21:39.270Z,1000.3
2019-04-11T20:25:09.405Z,1000.72
2019-04-11T20:28:39.459Z,1000.99
2019-04-11T20:32:09.677Z,1000.96
2019-04-11T20:35:40.091Z,1000.48
2019-04-11T20:39:14.999Z,1000.44
2019-04-11T20:42:45.904Z,1000.72
2019-04-11T20:46:16.117Z,1000.8
2019-04-11T20:49:48.859Z,1000.67
2019-04-11T20:53:18.972Z,1000.62
2019-04-11T20:56:48.985Z,1000.19
2019-04-11T21:00:16.101Z,1000.04
2019-04-11T21:03:46.084Z,999.76
2019-04-11T21:07:17.238Z,999.76
2019-04-11T21:10:47.326Z,1000.12
2019-04-11T21:14:17.403Z,999.93
2019-04-11T21:17:47.392Z,999.8
2019-04-11T21:21:17.580Z,999.79
2019-04-11T21:24:47.681Z,999.58
2019-04-11T21:28:17.919Z,999.76
2019-04-11T21:31:48.149Z,999.91
2019-04-11T21:35:18.487Z,999.96
2019-04-11T21:38:48.480Z,999.83
2019-04-11T21:42:18.569Z,999.81
2019-04-11T21:45:48.647Z,999.76
2019-04-11T21:49:18.885Z,999.6
2019-04-11T21:52:49.024Z,999.6
2019-04-11T21:56:19.374Z,999.24
2019-04-11T21:59:51.538Z,999.19
2019-04-11T22:03:24.340Z,999.41
2019-04-11T22:06:55.055Z,999.59
2019-04-11T22:10:26.255Z,999.63
2019-04-11T22:13:56.340Z,999.79
2019-04-11T22:17:26.481Z,999.86
2019-04-11T22:20:56.566Z,999.7
2019-04-11T22:24:26.745Z,999.91
2019-04-11T22:27:56.759Z,999.8
2019-04-11T22:31:26.937Z,999.74
2019-04-11T22:34:59.071Z,999.97
2019-04-11T22:38:30.963Z,1000.37
2019-04-11T22:42:01.601Z,1000.71
2019-04-11T22:45:31.722Z,1000.37
2019-04-11T22:49:01.722Z,1000.24
2019-04-11T22:52:31.847Z,1000.52
2019-04-11T22:56:01.926Z,1000.71
2019-04-11T22:59:31.965Z,1001.12
2019-04-11T23:00:15.884Z,1001.13
2019-04-11T23:03:49.460Z,1001.22
2019-04-11T23:07:19.540Z,1000.7
2019-04-11T23:10:49.756Z,1000.51
2019-04-11T23:14:19.884Z,1000.19
2019-04-11T23:17:50.045Z,1000.03
2019-04-11T23:21:20.163Z,1000.1
2019-04-11T23:24:50.221Z,1000.16
2019-04-11T23:28:20.379Z,999.98
2019-04-11T23:31:51.257Z,999.64
2019-04-11T23:35:21.797Z,999.32
2019-04-11T23:38:52.646Z,999.35
2019-04-11T23:42:23.582Z,999.2
2019-04-11T23:45:53.739Z,999.34
2019-04-11T23:49:25.207Z,999.25
2019-04-11T23:52:57.880Z,999.39
2019-04-11T23:56:30.524Z,999.24
